createdAt,value
2024-05-09T00:01:47.014Z,8.00
2024-05-09T00:04:16.966Z,8.10
2024-05-09T00:06:49.542Z,8.10
2024-05-09T00:09:19.356Z,8.20
2024-05-09T00:11:49.301Z,8.20
2024-05-09T00:14:19.302Z,8.20
2024-05-09T00:16:49.657Z,8.20
2024-05-09T00:19:19.777Z,8.20
2024-05-09T00:21:52.479Z,8.20
2024-05-09T00:24:22.387Z,8.20
2024-05-09T00:26:52.276Z,8.20
2024-05-09T00:29:22.301Z,8.20
2024-05-09T00:31:52.318Z,8.20
2024-05-09T00:34:22.351Z,8.20
2024-05-09T00:36:54.943Z,8.20
2024-05-09T00:39:24.793Z,8.10
2024-05-09T00:41:54.667Z,8.10
2024-05-09T00:44:24.726Z,8.00
2024-05-09T00:46:56.295Z,8.00
2024-05-09T00:49:26.996Z,8.00
2024-05-09T00:52:00.423Z,8.00
2024-05-09T00:54:30.991Z,7.90
2024-05-09T00:57:00.899Z,7.80
2024-05-09T00:59:32.605Z,7.80
2024-05-09T01:02:03.368Z,7.70
2024-05-09T01:04:33.383Z,7.60
2024-05-09T01:07:06.053Z,7.60
2024-05-09T01:09:36.005Z,7.40
2024-05-09T01:12:06.182Z,7.30
2024-05-09T01:14:39.612Z,7.30
2024-05-09T01:17:09.914Z,7.30
2024-05-09T01:19:40.119Z,7.30
2024-05-09T01:22:12.695Z,7.30
2024-05-09T01:24:45.209Z,7.40
2024-05-09T01:27:15.093Z,7.50
2024-05-09T01:29:44.921Z,7.50
2024-05-09T01:32:14.929Z,7.40
2024-05-09T01:34:44.994Z,7.40
2024-05-09T01:37:14.824Z,7.30
2024-05-09T01:39:47.299Z,7.30
2024-05-09T01:42:17.611Z,7.30
2024-05-09T01:44:47.537Z,7.10
2024-05-09T01:47:17.521Z,7.20
2024-05-09T01:49:47.495Z,7.10
2024-05-09T01:52:17.421Z,7.00
2024-05-09T01:54:49.946Z,6.90
2024-05-09T01:57:19.823Z,6.90
2024-05-09T01:59:49.679Z,6.90
2024-05-09T02:02:19.698Z,6.90
2024-05-09T02:04:50.411Z,6.90
2024-05-09T02:07:20.671Z,6.90
2024-05-09T02:09:54.514Z,6.90
2024-05-09T02:12:24.564Z,6.90
2024-05-09T02:14:54.698Z,6.80
2024-05-09T02:17:24.725Z,6.80
2024-05-09T02:19:54.752Z,6.60
2024-05-09T02:22:24.647Z,6.60
2024-05-09T02:24:57.240Z,6.60
2024-05-09T02:27:27.152Z,6.60
2024-05-09T02:29:57.142Z,6.50
2024-05-09T02:32:27.106Z,6.40
2024-05-09T02:34:57.163Z,6.30
2024-05-09T02:37:27.089Z,6.20
2024-05-09T02:39:57.056Z,6.30
2024-05-09T02:42:26.921Z,6.40
2024-05-09T02:44:54.299Z,6.50
2024-05-09T02:47:24.348Z,6.60
2024-05-09T02:49:51.754Z,6.50
2024-05-09T02:52:21.932Z,6.30
2024-05-09T02:54:49.267Z,6.40
2024-05-09T02:57:21.738Z,6.60
2024-05-09T02:59:49.024Z,6.70
2024-05-09T03:02:19.032Z,6.70
2024-05-09T03:04:46.451Z,6.70
2024-05-09T03:07:17.868Z,6.80
2024-05-09T03:09:46.969Z,6.90
2024-05-09T03:12:16.906Z,7.00
2024-05-09T03:14:49.672Z,7.00
2024-05-09T03:17:19.598Z,7.10
2024-05-09T03:19:47.001Z,7.20
2024-05-09T03:22:16.856Z,7.20
2024-05-09T03:24:44.117Z,7.30
2024-05-09T03:27:13.943Z,7.40
2024-05-09T03:29:41.175Z,7.50
2024-05-09T03:32:13.952Z,7.50
2024-05-09T03:34:41.334Z,7.70
2024-05-09T03:37:11.141Z,7.80
2024-05-09T03:39:41.045Z,7.90
2024-05-09T03:42:10.934Z,8.00
2024-05-09T03:44:39.013Z,8.10
2024-05-09T03:47:08.947Z,8.20
2024-05-09T03:49:38.891Z,8.20
2024-05-09T03:52:09.294Z,8.30
2024-05-09T03:54:36.526Z,8.30
2024-05-09T03:57:06.848Z,8.40
2024-05-09T03:59:34.220Z,8.40
2024-05-09T04:02:06.502Z,8.40
2024-05-09T04:04:34.152Z,8.40
2024-05-09T04:07:06.918Z,8.50
2024-05-09T04:09:34.309Z,8.50
2024-05-09T04:12:04.291Z,8.50
2024-05-09T04:14:31.809Z,8.60
2024-05-09T04:17:01.808Z,8.60
2024-05-09T04:19:29.174Z,8.70
2024-05-09T04:21:59.018Z,8.70
2024-05-09T04:24:29.054Z,8.80
2024-05-09T04:26:58.915Z,8.80
2024-05-09T04:29:26.260Z,8.90
2024-05-09T04:31:56.264Z,8.90
2024-05-09T04:34:23.650Z,9.00
2024-05-09T04:36:54.837Z,9.10
2024-05-09T04:39:22.224Z,9.10
2024-05-09T04:41:54.746Z,9.20
2024-05-09T04:44:22.182Z,9.30
2024-05-09T04:46:52.054Z,9.30
2024-05-09T04:49:19.611Z,9.40
2024-05-09T04:51:49.684Z,9.40
2024-05-09T04:54:26.460Z,9.50
2024-05-09T04:57:06.796Z,9.60
2024-05-09T04:59:34.264Z,9.70
2024-05-09T05:02:04.305Z,9.70
2024-05-09T05:04:31.712Z,9.80
2024-05-09T05:07:02.811Z,10.00
2024-05-09T05:09:30.570Z,9.90
2024-05-09T05:12:02.949Z,9.90
2024-05-09T05:14:33.058Z,9.80
2024-05-09T05:17:03.055Z,9.90
2024-05-09T05:19:30.623Z,9.90
2024-05-09T05:22:00.701Z,9.80
2024-05-09T05:24:27.946Z,9.90
2024-05-09T05:26:57.747Z,9.90
2024-05-09T05:29:25.082Z,10.00
2024-05-09T05:31:57.802Z,10.10
2024-05-09T05:34:25.114Z,10.10
2024-05-09T05:36:54.937Z,10.10
2024-05-09T05:39:24.845Z,10.20
2024-05-09T05:41:52.108Z,10.40
2024-05-09T05:44:22.039Z,10.50
2024-05-09T05:46:49.358Z,10.50
2024-05-09T05:49:21.885Z,10.50
2024-05-09T05:51:49.354Z,10.50
2024-05-09T05:54:19.152Z,10.50
2024-05-09T05:56:46.424Z,10.50
2024-05-09T05:59:16.444Z,10.70
2024-05-09T06:01:43.681Z,10.50
2024-05-09T06:04:13.649Z,10.50
2024-05-09T06:06:43.599Z,10.40
2024-05-09T06:09:13.493Z,10.40
2024-05-09T06:11:41.319Z,10.30
2024-05-09T06:14:11.884Z,10.20
2024-05-09T06:16:39.161Z,10.20
2024-05-09T06:19:09.075Z,10.10
2024-05-09T06:21:36.480Z,10.00
2024-05-09T06:24:09.072Z,10.00
2024-05-09T06:26:36.417Z,9.90
2024-05-09T06:29:06.437Z,9.90
2024-05-09T06:31:33.819Z,9.80
2024-05-09T06:34:04.413Z,9.80
2024-05-09T06:36:31.787Z,9.70
2024-05-09T06:39:01.592Z,9.70
2024-05-09T06:41:31.573Z,9.70
2024-05-09T06:44:01.579Z,9.80
2024-05-09T06:46:29.512Z,9.70
2024-05-09T06:49:04.375Z,9.70
2024-05-09T06:51:31.811Z,9.60
2024-05-09T06:54:01.610Z,9.70
2024-05-09T06:56:31.649Z,9.70
2024-05-09T06:59:01.647Z,9.70
2024-05-09T07:01:29.047Z,9.70
2024-05-09T07:03:59.177Z,9.60
2024-05-09T07:06:26.555Z,9.60
2024-05-09T07:08:56.439Z,9.60
2024-05-09T07:11:23.930Z,9.60
2024-05-09T07:13:56.607Z,9.60
2024-05-09T07:16:23.986Z,9.80
2024-05-09T07:18:55.191Z,9.80
2024-05-09T07:21:22.574Z,10.00
2024-05-09T07:23:52.525Z,10.20
2024-05-09T07:26:19.862Z,10.20
2024-05-09T07:28:49.767Z,10.30
2024-05-09T07:31:20.170Z,10.40
2024-05-09T07:33:50.040Z,10.70
2024-05-09T07:36:17.389Z,10.90
2024-05-09T07:38:47.305Z,11.00
2024-05-09T07:41:14.785Z,11.00
2024-05-09T07:43:44.666Z,11.30
2024-05-09T07:47:13.723Z,11.50
2024-05-09T07:53:14.358Z,11.40
2024-05-09T07:54:29.577Z,11.50
2024-05-09T07:56:57.185Z,11.50
2024-05-09T07:59:27.198Z,11.50
2024-05-09T08:01:54.530Z,11.30
2024-05-09T08:04:27.172Z,11.70
2024-05-09T08:06:54.574Z,11.80
2024-05-09T08:09:24.501Z,11.90
2024-05-09T08:11:52.822Z,12.10
2024-05-09T08:14:22.693Z,12.30
2024-05-09T08:16:50.173Z,12.10
2024-05-09T08:19:20.272Z,11.80
2024-05-09T08:21:50.343Z,11.70
2024-05-09T08:24:20.205Z,11.60
2024-05-09T08:26:47.522Z,11.50
2024-05-09T08:29:17.452Z,11.30
2024-05-09T08:31:44.809Z,11.40
2024-05-09T08:34:14.910Z,11.60
2024-05-09T08:36:42.444Z,11.90
2024-05-09T08:39:14.914Z,12.40
2024-05-09T08:41:42.823Z,12.60
2024-05-09T08:44:12.676Z,12.40
2024-05-09T08:46:41.766Z,12.00
2024-05-09T08:49:12.807Z,11.90
2024-05-09T08:51:40.198Z,12.00
2024-05-09T08:54:10.103Z,12.50
2024-05-09T08:56:45.313Z,12.60
2024-05-09T08:59:23.264Z,12.80
2024-05-09T09:01:51.116Z,12.70
2024-05-09T09:04:21.570Z,12.50
2024-05-09T09:06:52.005Z,12.50
2024-05-09T09:09:23.326Z,12.10
2024-05-09T09:11:53.319Z,11.70
2024-05-09T09:14:23.158Z,12.00
2024-05-09T09:16:51.836Z,12.30
2024-05-09T09:19:21.873Z,13.10
2024-05-09T09:21:49.254Z,13.00
2024-05-09T09:24:19.109Z,13.00
2024-05-09T09:26:46.388Z,13.30
2024-05-09T09:29:22.545Z,13.10
2024-05-09T09:31:58.350Z,12.70
2024-05-09T09:34:31.192Z,12.60
2024-05-09T09:37:05.064Z,12.50
2024-05-09T09:39:35.990Z,12.80
2024-05-09T09:42:04.452Z,13.10
2024-05-09T09:44:39.585Z,13.50
2024-05-09T09:47:09.684Z,13.50
2024-05-09T09:49:40.267Z,13.50
2024-05-09T09:52:11.024Z,13.20
2024-05-09T09:54:41.920Z,13.00
2024-05-09T09:57:09.201Z,13.10
2024-05-09T09:59:43.826Z,12.90
2024-05-09T10:02:11.296Z,12.80
2024-05-09T10:04:41.477Z,12.90
2024-05-09T10:07:10.721Z,12.50
2024-05-09T10:09:40.740Z,12.40
2024-05-09T10:12:13.656Z,12.40
2024-05-09T10:14:50.998Z,12.40
2024-05-09T10:17:18.343Z,12.40
2024-05-09T10:19:48.769Z,12.50
2024-05-09T10:22:26.788Z,12.60
2024-05-09T10:24:57.557Z,12.50
2024-05-09T10:27:29.337Z,12.40
2024-05-09T10:30:06.878Z,12.40
2024-05-09T10:32:39.848Z,12.50
2024-05-09T10:35:11.711Z,12.30
2024-05-09T10:37:39.438Z,12.10
2024-05-09T10:40:14.379Z,12.10
2024-05-09T10:42:48.220Z,12.20
2024-05-09T10:45:21.537Z,12.10
2024-05-09T10:47:48.920Z,11.80
2024-05-09T10:50:25.662Z,11.80
2024-05-09T10:52:56.302Z,11.70
2024-05-09T10:55:26.243Z,11.90
2024-05-09T10:57:53.747Z,12.20
2024-05-09T11:00:36.019Z,12.20
2024-05-09T11:03:04.470Z,12.30
2024-05-09T11:05:34.900Z,12.60
2024-05-09T11:08:02.488Z,12.60
2024-05-09T11:10:34.367Z,12.50
2024-05-09T11:13:02.087Z,12.60
2024-05-09T11:15:43.199Z,12.30
2024-05-09T11:18:24.650Z,12.20
2024-05-09T11:20:56.323Z,12.10
2024-05-09T11:23:26.214Z,12.30
2024-05-09T11:25:57.507Z,12.40
2024-05-09T11:28:26.982Z,12.50
2024-05-09T11:31:09.666Z,12.80
2024-05-09T11:33:38.341Z,12.50
2024-05-09T11:36:09.339Z,12.20
2024-05-09T11:38:36.847Z,12.00
2024-05-09T11:41:07.693Z,12.00
2024-05-09T11:43:35.078Z,12.30
2024-05-09T11:46:07.915Z,12.50
2024-05-09T11:48:35.425Z,12.80
2024-05-09T11:51:05.389Z,13.00
2024-05-09T11:53:32.766Z,13.30
2024-05-09T11:56:02.827Z,13.40
2024-05-09T11:58:34.385Z,13.50
2024-05-09T12:01:07.214Z,13.80
2024-05-09T12:03:35.280Z,14.20
2024-05-09T12:06:05.464Z,14.40
2024-05-09T12:08:33.096Z,14.40
2024-05-09T12:11:03.296Z,14.60
2024-05-09T12:13:30.749Z,14.50
2024-05-09T12:16:00.833Z,14.70
2024-05-09T12:18:31.576Z,14.90
2024-05-09T12:21:01.458Z,14.70
2024-05-09T12:23:28.703Z,14.50
2024-05-09T12:25:58.582Z,14.90
2024-05-09T12:28:26.585Z,14.70
2024-05-09T12:30:56.482Z,14.90
2024-05-09T12:33:23.942Z,14.60
2024-05-09T12:35:56.519Z,14.30
2024-05-09T12:38:23.891Z,14.20
2024-05-09T12:40:54.175Z,14.30
2024-05-09T12:43:21.791Z,14.30
2024-05-09T12:45:51.812Z,14.30
2024-05-09T12:48:19.349Z,14.40
2024-05-09T12:50:49.381Z,13.80
2024-05-09T12:53:19.367Z,13.30
2024-05-09T12:55:56.601Z,13.00
2024-05-09T12:58:27.793Z,13.00
2024-05-09T13:00:57.783Z,13.00
2024-05-09T13:03:25.270Z,13.00
2024-05-09T13:05:55.324Z,13.10
2024-05-09T13:08:25.306Z,13.10
2024-05-09T13:10:55.343Z,13.20
2024-05-09T13:13:22.823Z,13.60
2024-05-09T13:15:52.770Z,13.40
2024-05-09T13:18:20.140Z,13.40
2024-05-09T13:20:53.098Z,13.50
2024-05-09T13:23:20.334Z,13.70
2024-05-09T13:25:52.869Z,13.50
2024-05-09T13:28:21.119Z,13.30
2024-05-09T13:30:51.065Z,13.40
2024-05-09T13:33:18.609Z,13.50
2024-05-09T13:35:50.653Z,13.60
2024-05-09T13:38:21.559Z,13.60
2024-05-09T13:40:54.227Z,13.40
2024-05-09T13:43:23.241Z,13.20
2024-05-09T13:45:55.227Z,13.20
2024-05-09T13:48:22.679Z,13.10
2024-05-09T13:50:52.554Z,13.30
2024-05-09T13:53:19.799Z,13.20
2024-05-09T13:55:49.924Z,13.20
2024-05-09T13:58:19.929Z,13.30
2024-05-09T14:00:49.911Z,13.10
2024-05-09T14:03:19.746Z,13.10
2024-05-09T14:05:52.295Z,13.30
2024-05-09T14:08:22.642Z,13.20
2024-05-09T14:10:53.771Z,13.30
2024-05-09T14:13:23.868Z,13.40
2024-05-09T14:15:53.957Z,13.40
2024-05-09T14:18:21.458Z,13.30
2024-05-09T14:20:51.335Z,13.10
2024-05-09T14:23:18.738Z,13.20
2024-05-09T14:25:52.078Z,13.40
2024-05-09T14:28:31.625Z,13.60
2024-05-09T14:31:01.298Z,13.70
2024-05-09T14:33:31.533Z,13.60
2024-05-09T14:35:59.156Z,13.40
2024-05-09T14:38:30.357Z,13.60
2024-05-09T14:40:58.071Z,13.20
2024-05-09T14:43:28.329Z,13.00
2024-05-09T14:45:58.445Z,13.10
2024-05-09T14:48:28.438Z,13.10
2024-05-09T14:50:55.697Z,13.00
2024-05-09T14:53:27.159Z,12.90
2024-05-09T14:55:54.688Z,12.90
2024-05-09T14:58:24.777Z,12.80
2024-05-09T15:00:52.532Z,12.90
2024-05-09T15:03:25.186Z,12.90
2024-05-09T15:05:52.738Z,12.80
2024-05-09T15:08:23.216Z,12.70
2024-05-09T15:10:50.924Z,12.70
2024-05-09T15:13:21.353Z,12.70
2024-05-09T15:15:50.003Z,12.80
2024-05-09T15:18:20.409Z,12.80
2024-05-09T15:20:50.628Z,12.90
2024-05-09T15:23:20.706Z,12.80
2024-05-09T15:25:48.081Z,12.80
2024-05-09T15:28:18.619Z,12.80
2024-05-09T15:30:46.986Z,12.80
2024-05-09T15:33:17.453Z,12.80
2024-05-09T15:35:46.800Z,12.50
2024-05-09T15:38:19.917Z,12.40
2024-05-09T15:40:47.429Z,12.30
2024-05-09T15:43:17.435Z,12.20
2024-05-09T15:45:45.078Z,12.20
2024-05-09T15:48:15.180Z,12.10
2024-05-09T15:50:43.249Z,12.20
2024-05-09T15:53:14.222Z,12.10
2024-05-09T15:55:44.139Z,12.10
2024-05-09T15:58:14.484Z,12.10
2024-05-09T16:00:44.156Z,12.10
2024-05-09T16:03:16.187Z,12.10
2024-05-09T16:05:44.756Z,12.00
2024-05-09T16:08:15.614Z,12.00
2024-05-09T16:10:47.385Z,12.10
2024-05-09T16:13:19.774Z,12.20
2024-05-09T16:15:47.573Z,12.20
2024-05-09T16:18:17.826Z,12.10
2024-05-09T16:20:48.266Z,12.10
2024-05-09T16:23:20.107Z,12.00
2024-05-09T16:25:51.512Z,12.10
2024-05-09T16:28:23.046Z,12.00
2024-05-09T16:30:51.876Z,12.10
2024-05-09T16:33:23.881Z,12.10
2024-05-09T16:35:51.715Z,12.10
2024-05-09T16:38:22.014Z,12.10
2024-05-09T16:40:52.096Z,12.10
2024-05-09T16:43:22.576Z,12.10
2024-05-09T16:45:51.143Z,12.10
2024-05-09T16:48:21.432Z,12.10
2024-05-09T16:50:49.307Z,12.00
2024-05-09T16:53:19.173Z,11.90
2024-05-09T16:55:46.522Z,11.90
2024-05-09T16:58:19.606Z,11.80
2024-05-09T17:00:47.094Z,11.90
2024-05-09T17:03:18.243Z,11.80
2024-05-09T17:05:47.269Z,11.80
2024-05-09T17:08:18.523Z,11.70
2024-05-09T17:10:47.575Z,11.70
2024-05-09T17:13:20.901Z,11.70
2024-05-09T17:15:51.406Z,11.70
2024-05-09T17:18:21.730Z,11.70
2024-05-09T17:20:50.341Z,11.60
2024-05-09T17:23:20.329Z,11.50
2024-05-09T17:25:47.714Z,11.60
2024-05-09T17:28:20.662Z,11.50
2024-05-09T17:30:48.657Z,11.50
2024-05-09T17:33:18.701Z,11.40
2024-05-09T17:35:50.235Z,11.40
2024-05-09T17:38:22.912Z,11.40
2024-05-09T17:40:50.975Z,11.40
2024-05-09T17:43:23.898Z,11.40
2024-05-09T17:45:51.366Z,11.40
2024-05-09T17:48:21.741Z,11.40
2024-05-09T17:50:49.185Z,11.30
2024-05-09T17:53:20.171Z,11.30
2024-05-09T17:55:48.785Z,11.30
2024-05-09T17:58:18.975Z,11.30
2024-05-09T18:00:48.965Z,11.20
2024-05-09T18:03:19.044Z,11.20
2024-05-09T18:05:46.521Z,11.20
2024-05-09T18:08:16.621Z,11.20
2024-05-09T18:10:46.625Z,11.20
2024-05-09T18:13:14.331Z,11.20
2024-05-09T18:15:45.254Z,11.10
2024-05-09T18:18:15.743Z,11.10
2024-05-09T18:20:46.468Z,11.00
2024-05-09T18:23:16.468Z,11.00
2024-05-09T18:25:48.366Z,11.00
2024-05-09T18:28:16.718Z,11.00
2024-05-09T18:30:47.179Z,11.00
2024-05-09T18:33:17.423Z,10.90
2024-05-09T18:35:47.845Z,10.90
2024-05-09T18:38:15.260Z,10.90
2024-05-09T18:40:48.345Z,10.90
2024-05-09T18:43:17.156Z,10.90
2024-05-09T18:45:47.686Z,10.80
2024-05-09T18:48:17.836Z,10.80
2024-05-09T18:50:48.190Z,10.80
2024-05-09T18:53:16.188Z,10.80
2024-05-09T18:55:46.043Z,10.80
2024-05-09T18:58:13.460Z,10.80
2024-05-09T19:00:46.015Z,10.80
2024-05-09T19:03:18.651Z,10.80
2024-05-09T19:05:49.017Z,10.70
2024-05-09T19:08:16.339Z,10.70
2024-05-09T19:10:47.051Z,10.70
2024-05-09T19:13:15.023Z,10.70
2024-05-09T19:15:45.360Z,10.70
2024-05-09T19:18:14.116Z,10.60
2024-05-09T19:20:47.323Z,10.60
2024-05-09T19:23:14.741Z,10.60
2024-05-09T19:25:44.543Z,10.60
2024-05-09T19:28:11.843Z,10.60
2024-05-09T19:30:42.943Z,10.60
2024-05-09T19:33:12.803Z,10.60
2024-05-09T19:35:46.325Z,10.60
2024-05-09T19:38:13.703Z,10.60
2024-05-09T19:40:43.713Z,10.60
2024-05-09T19:43:11.330Z,10.60
2024-05-09T19:45:41.497Z,10.50
2024-05-09T19:48:09.126Z,10.50
2024-05-09T19:50:43.240Z,10.50
2024-05-09T19:53:14.960Z,10.50
2024-05-09T19:55:45.354Z,10.50
2024-05-09T19:58:13.241Z,10.50
2024-05-09T20:00:44.534Z,10.50
2024-05-09T20:03:15.250Z,10.50
2024-05-09T20:05:48.580Z,10.50
2024-05-09T20:08:18.701Z,10.50
2024-05-09T20:10:48.736Z,10.50
2024-05-09T20:13:16.106Z,10.50
2024-05-09T20:15:45.999Z,10.50
2024-05-09T20:18:13.527Z,10.50
2024-05-09T20:20:45.155Z,10.50
2024-05-09T20:23:13.715Z,10.50
2024-05-09T20:25:46.187Z,10.50
2024-05-09T20:28:13.609Z,10.50
2024-05-09T20:30:43.627Z,10.50
2024-05-09T20:33:12.417Z,10.50
2024-05-09T20:35:42.719Z,10.50
2024-05-09T20:38:10.070Z,10.50
2024-05-09T20:40:40.281Z,10.50
2024-05-09T20:43:11.031Z,10.50
2024-05-09T20:45:41.285Z,10.50
2024-05-09T20:48:09.457Z,10.50
2024-05-09T20:50:41.985Z,10.50
2024-05-09T20:53:11.388Z,10.50
2024-05-09T20:55:41.734Z,10.50
2024-05-09T20:58:12.201Z,10.50
2024-05-09T21:00:44.960Z,10.50
2024-05-09T21:03:16.128Z,10.50
2024-05-09T21:05:47.698Z,10.50
2024-05-09T21:08:15.666Z,10.50
2024-05-09T21:10:45.660Z,10.50
2024-05-09T21:13:15.650Z,10.50
2024-05-09T21:15:45.732Z,10.50
2024-05-09T21:18:13.090Z,10.50
2024-05-09T21:20:42.998Z,10.50
2024-05-09T21:23:10.439Z,10.50
2024-05-09T21:25:40.299Z,10.50
2024-05-09T21:28:07.857Z,10.50
2024-05-09T21:30:42.789Z,10.50
2024-05-09T21:33:12.773Z,10.50
2024-05-09T21:35:44.800Z,10.50
2024-05-09T21:38:14.138Z,10.50
2024-05-09T21:40:45.400Z,10.50
2024-05-09T21:43:12.998Z,10.50
2024-05-09T21:45:45.622Z,10.50
2024-05-09T21:48:13.513Z,10.50
2024-05-09T21:50:43.545Z,10.50
2024-05-09T21:53:11.856Z,10.50
2024-05-09T21:55:42.173Z,10.50
2024-05-09T21:58:10.542Z,10.50
2024-05-09T22:00:42.935Z,10.50
2024-05-09T22:03:13.812Z,10.50
2024-05-09T22:05:44.970Z,10.50
2024-05-09T22:08:13.070Z,10.50
2024-05-09T22:10:43.092Z,10.50
2024-05-09T22:13:10.500Z,10.50
2024-05-09T22:15:41.572Z,10.50
2024-05-09T22:18:10.248Z,10.50
2024-05-09T22:20:46.350Z,10.50
2024-05-09T22:23:15.152Z,10.50
2024-05-09T22:25:45.270Z,10.50
2024-05-09T22:28:14.450Z,10.50
2024-05-09T22:30:46.329Z,10.50
2024-05-09T22:33:15.180Z,10.40
2024-05-09T22:35:48.169Z,10.40
2024-05-09T22:38:15.539Z,10.40
2024-05-09T22:40:48.738Z,10.40
2024-05-09T22:43:19.813Z,10.40
2024-05-09T22:45:50.398Z,10.40
2024-05-09T22:48:18.350Z,10.40
2024-05-09T22:50:50.926Z,10.40
2024-05-09T22:53:18.521Z,10.30
2024-05-09T22:55:48.350Z,10.40
2024-05-09T22:58:15.815Z,10.40
2024-05-09T23:00:45.885Z,10.30
2024-05-09T23:03:15.824Z,10.30
2024-05-09T23:05:45.798Z,10.30
2024-05-09T23:08:15.652Z,10.40
2024-05-09T23:10:45.650Z,10.40
2024-05-09T23:13:13.296Z,10.40
2024-05-09T23:15:43.488Z,10.40
2024-05-09T23:18:11.371Z,10.40
2024-05-09T23:20:41.258Z,10.40
2024-05-09T23:23:10.165Z,10.40
2024-05-09T23:25:44.136Z,10.40
2024-05-09T23:28:11.702Z,10.40
2024-05-09T23:30:42.553Z,10.40
2024-05-09T23:33:11.317Z,10.40
2024-05-09T23:35:41.524Z,10.40
2024-05-09T23:38:08.800Z,10.40
2024-05-09T23:40:40.959Z,10.40
2024-05-09T23:43:12.905Z,10.40
2024-05-09T23:45:43.442Z,10.40
2024-05-09T23:48:11.247Z,10.40
2024-05-09T23:50:41.738Z,10.40
2024-05-09T23:53:10.141Z,10.40
2024-05-09T23:55:41.072Z,10.40
2024-05-09T23:58:08.799Z,10.40
